Time;durP1;ratioP1;P1;durP2;ratioP2;P2;SDS_P1;SDS_P2;PMS_P1;PMS_P2;Temp;Humidity;BMP_temperature;BMP_pressure;BME280_temperature;BME280_humidity;BME280_pressure;Samples;Min_cycle;Max_cycle;Signal;HPM_P1;HPM_P2
2022/05/02 00:02:05;;;;;;;4.78;1.48;;;;;;;;;;5057630;28;20021;-75
2022/05/02 00:04:32;;;;;;;8.68;1.83;;;;;;;;;;5057634;28;20025;-74
2022/05/02 00:06:59;;;;;;;11.63;2.10;;;;;;;;;;5056608;28;20235;-76
2022/05/02 00:09:27;;;;;;;6.13;1.55;;;;;;;;;;5057949;28;20441;-76
2022/05/02 00:11:54;;;;;;;4.43;1.77;;;;;;;;;;5058359;28;20074;-76
2022/05/02 00:14:21;;;;;;;4.38;1.45;;;;;;;;;;5058879;28;20040;-75
2022/05/02 00:16:48;;;;;;;4.28;1.38;;;;;;;;;;5057818;28;20127;-74
2022/05/02 00:19:15;;;;;;;5.45;1.63;;;;;;;;;;5057980;28;20096;-75
2022/05/02 00:21:42;;;;;;;5.05;1.50;;;;;;;;;;5064963;28;20025;-76
2022/05/02 00:24:10;;;;;;;5.68;1.55;;;;;;;;;;5059271;28;20017;-75
2022/05/02 00:26:37;;;;;;;8.15;1.67;;;;;;;;;;5057276;28;20021;-75
2022/05/02 00:29:04;;;;;;;4.82;1.40;;;;;;;;;;5057804;28;20036;-77
2022/05/02 00:31:31;;;;;;;6.30;1.83;;;;;;;;;;5057694;28;20095;-77
2022/05/02 00:33:58;;;;;;;8.18;2.10;;;;;;;;;;5056208;28;20053;-77
2022/05/02 00:36:26;;;;;;;6.63;1.63;;;;;;;;;;5058529;28;20029;-77
2022/05/02 00:38:53;;;;;;;6.55;2.08;;;;;;;;;;5059306;28;20104;-76
2022/05/02 00:41:22;;;;;;;5.97;1.55;;;;;;;;;;5056459;28;20096;-77
2022/05/02 00:43:52;;;;;;;4.38;1.23;;;;;;;;;;5057043;28;20025;-77
2022/05/02 00:46:20;;;;;;;3.47;1.20;;;;;;;;;;5056025;28;20104;-78
2022/05/02 00:48:48;;;;;;;4.10;1.70;;;;;;;;;;5053936;28;20069;-77
2022/05/02 00:51:15;;;;;;;5.45;1.63;;;;;;;;;;5055996;28;20543;-78
2022/05/02 00:53:43;;;;;;;5.18;1.60;;;;;;;;;;5055920;28;20504;-77
2022/05/02 00:56:11;;;;;;;5.55;1.80;;;;;;;;;;5055218;28;20100;-77
2022/05/02 00:58:38;;;;;;;5.68;1.42;;;;;;;;;;5059947;28;20021;-77
2022/05/02 01:01:06;;;;;;;6.85;1.92;;;;;;;;;;5057924;28;20032;-77
2022/05/02 01:03:34;;;;;;;8.45;1.70;;;;;;;;;;5057425;28;20021;-75
2022/05/02 01:08:53;;;;;;;6.55;1.80;;;;;;;;;;5056254;28;20052;-77
2022/05/02 01:11:20;;;;;;;5.50;1.70;;;;;;;;;;5055206;28;20029;-77
2022/05/02 01:13:48;;;;;;;4.80;1.35;;;;;;;;;;5057384;28;20033;-76
2022/05/02 01:16:33;;;;;;;5.10;1.40;;;;;;;;;;5056942;28;20342;-78
2022/05/02 01:19:00;;;;;;;4.93;1.52;;;;;;;;;;5055929;28;20032;-78
2022/05/02 01:21:31;;;;;;;6.53;1.75;;;;;;;;;;5053447;28;20029;-78
2022/05/02 01:24:03;;;;;;;4.22;1.70;;;;;;;;;;5058606;28;20093;-79
2022/05/02 01:26:30;;;;;;;6.13;1.17;;;;;;;;;;5054254;28;20021;-79
2022/05/02 01:28:59;;;;;;;7.80;2.15;;;;;;;;;;5054897;28;20025;-79
2022/05/02 01:31:26;;;;;;;6.38;1.40;;;;;;;;;;5056228;28;20021;-78
2022/05/02 01:33:53;;;;;;;6.00;1.30;;;;;;;;;;5058985;28;20027;-78
2022/05/02 01:36:21;;;;;;;3.60;1.50;;;;;;;;;;5055861;28;20037;-78
2022/05/02 01:38:48;;;;;;;6.13;1.30;;;;;;;;;;5054728;28;20041;-79
2022/05/02 01:41:16;;;;;;;6.10;1.60;;;;;;;;;;5053753;28;20083;-77
2022/05/02 01:43:44;;;;;;;6.47;1.60;;;;;;;;;;5061593;28;20056;-79
2022/05/02 01:46:12;;;;;;;7.25;1.63;;;;;;;;;;5057755;28;20029;-78
2022/05/02 01:48:40;;;;;;;5.68;1.48;;;;;;;;;;5055903;28;20021;-78
2022/05/02 01:51:07;;;;;;;7.15;1.65;;;;;;;;;;5055530;28;20503;-79
2022/05/02 01:53:34;;;;;;;3.30;1.40;;;;;;;;;;5054080;28;20021;-76
2022/05/02 01:56:02;;;;;;;7.78;1.50;;;;;;;;;;5058978;28;20024;-78
2022/05/02 01:58:29;;;;;;;5.85;2.03;;;;;;;;;;5058131;28;20070;-76
2022/05/02 02:00:56;;;;;;;7.15;1.20;;;;;;;;;;5054762;28;20013;-78
2022/05/02 02:03:23;;;;;;;5.20;1.15;;;;;;;;;;5059375;28;20025;-78
2022/05/02 02:05:50;;;;;;;3.92;1.35;;;;;;;;;;5054873;28;20024;-77
2022/05/02 02:08:23;;;;;;;6.75;1.45;;;;;;;;;;5055492;28;20110;-78
2022/05/02 02:10:52;;;;;;;5.82;1.50;;;;;;;;;;5053779;28;20028;-78
2022/05/02 02:13:19;;;;;;;4.78;1.50;;;;;;;;;;5055505;28;20032;-78
2022/05/02 02:15:46;;;;;;;5.78;1.20;;;;;;;;;;5053819;28;20535;-78
2022/05/02 02:18:13;;;;;;;5.60;1.48;;;;;;;;;;5054945;28;20033;-77
2022/05/02 02:20:44;;;;;;;5.68;1.50;;;;;;;;;;5054577;28;20052;-77
2022/05/02 02:23:12;;;;;;;7.40;2.13;;;;;;;;;;5054731;28;20033;-77
2022/05/02 02:25:39;;;;;;;8.23;1.90;;;;;;;;;;5053842;28;20369;-78
2022/05/02 02:28:06;;;;;;;8.25;1.42;;;;;;;;;;5054952;28;20071;-77
2022/05/02 02:30:33;;;;;;;5.78;1.45;;;;;;;;;;5054594;28;20052;-78
2022/05/02 02:33:01;;;;;;;7.43;1.85;;;;;;;;;;5054770;28;20078;-78
2022/05/02 02:35:29;;;;;;;5.00;1.23;;;;;;;;;;5053843;28;20116;-79
2022/05/02 02:37:56;;;;;;;4.65;1.45;;;;;;;;;;5053208;28;20094;-77
2022/05/02 02:40:23;;;;;;;7.20;1.88;;;;;;;;;;5054856;28;20393;-78
2022/05/02 02:42:50;;;;;;;4.72;1.30;;;;;;;;;;5055615;28;20025;-77
2022/05/02 02:45:18;;;;;;;5.78;1.45;;;;;;;;;;5053659;28;20025;-77
2022/05/02 02:47:45;;;;;;;3.30;1.33;;;;;;;;;;5054830;28;20025;-78
2022/05/02 02:50:12;;;;;;;6.88;1.52;;;;;;;;;;5054393;28;20102;-79
2022/05/02 02:52:39;;;;;;;4.28;1.08;;;;;;;;;;5053537;28;20025;-78
2022/05/02 02:55:07;;;;;;;4.07;1.33;;;;;;;;;;5052877;28;20489;-78
2022/05/02 02:57:34;;;;;;;5.22;1.63;;;;;;;;;;5053455;28;20035;-79
2022/05/02 03:00:02;;;;;;;7.55;1.88;;;;;;;;;;5053270;28;20096;-79
2022/05/02 03:02:29;;;;;;;5.47;1.30;;;;;;;;;;5055803;28;20017;-79
2022/05/02 03:07:42;;;;;;;4.82;1.50;;;;;;;;;;5055984;28;20091;-79
2022/05/02 03:10:09;;;;;;;8.23;1.48;;;;;;;;;;5058506;28;20029;-79
2022/05/02 03:12:36;;;;;;;5.40;1.23;;;;;;;;;;5058555;28;20346;-79
2022/05/02 03:15:03;;;;;;;6.90;1.50;;;;;;;;;;5058252;28;20029;-79
2022/05/02 03:17:31;;;;;;;4.65;1.33;;;;;;;;;;5057211;28;20400;-79
2022/05/02 03:19:58;;;;;;;6.30;1.30;;;;;;;;;;5058236;28;20021;-79
2022/05/02 03:22:25;;;;;;;3.58;1.40;;;;;;;;;;5058166;28;20163;-77
2022/05/02 03:24:52;;;;;;;4.07;1.05;;;;;;;;;;5057963;28;20032;-78
2022/05/02 03:27:19;;;;;;;4.65;1.10;;;;;;;;;;5057705;28;20037;-79
2022/05/02 03:29:46;;;;;;;5.25;1.45;;;;;;;;;;5057752;28;20083;-78
2022/05/02 03:32:13;;;;;;;5.18;1.20;;;;;;;;;;5057966;28;20523;-78
2022/05/02 03:34:41;;;;;;;6.00;1.25;;;;;;;;;;5057421;28;20144;-78
2022/05/02 03:37:08;;;;;;;7.45;1.20;;;;;;;;;;5057731;28;20071;-78
2022/05/02 03:39:35;;;;;;;5.35;1.27;;;;;;;;;;5058056;28;20048;-77
2022/05/02 03:42:02;;;;;;;6.50;1.33;;;;;;;;;;5056322;28;20452;-77
2022/05/02 03:44:29;;;;;;;4.70;1.20;;;;;;;;;;5057209;28;20017;-76
2022/05/02 03:46:56;;;;;;;3.33;0.75;;;;;;;;;;5057130;28;20436;-78
2022/05/02 03:49:24;;;;;;;5.43;1.42;;;;;;;;;;5056281;28;20043;-77
2022/05/02 03:51:51;;;;;;;5.03;1.05;;;;;;;;;;5056933;28;20021;-77
2022/05/02 03:54:18;;;;;;;5.55;1.17;;;;;;;;;;5056814;28;20060;-77
2022/05/02 03:56:45;;;;;;;4.20;0.90;;;;;;;;;;5056841;28;20125;-77
2022/05/02 03:59:12;;;;;;;3.90;0.65;;;;;;;;;;5055027;28;20473;-77
2022/05/02 04:01:41;;;;;;;2.83;0.80;;;;;;;;;;5055582;28;20492;-77
2022/05/02 04:04:08;;;;;;;3.65;0.90;;;;;;;;;;5055111;28;20025;-76
2022/05/02 04:06:36;;;;;;;3.90;0.98;;;;;;;;;;5054706;28;20104;-78
2022/05/02 04:09:03;;;;;;;2.67;0.73;;;;;;;;;;5056327;28;20036;-77
2022/05/02 04:11:30;;;;;;;5.55;0.98;;;;;;;;;;5056475;28;20028;-78
2022/05/02 04:13:58;;;;;;;3.92;0.77;;;;;;;;;;5056316;28;20370;-77
2022/05/02 04:16:25;;;;;;;6.47;0.80;;;;;;;;;;5056185;28;20123;-76
2022/05/02 04:18:52;;;;;;;3.85;1.00;;;;;;;;;;5055713;28;20025;-76
2022/05/02 04:21:19;;;;;;;6.63;1.10;;;;;;;;;;5056102;28;20025;-77
2022/05/02 04:23:46;;;;;;;5.82;1.15;;;;;;;;;;5056166;28;20554;-75
2022/05/02 04:26:13;;;;;;;3.22;0.90;;;;;;;;;;5055988;28;20013;-76
2022/05/02 04:28:41;;;;;;;4.13;0.75;;;;;;;;;;5056153;28;20044;-76
2022/05/02 04:31:08;;;;;;;4.38;1.00;;;;;;;;;;5055288;28;20067;-76
2022/05/02 04:33:39;;;;;;;3.10;0.90;;;;;;;;;;5069162;28;20466;-77
2022/05/02 04:36:07;;;;;;;3.97;0.95;;;;;;;;;;5061321;28;20025;-77
2022/05/02 04:38:34;;;;;;;9.15;1.45;;;;;;;;;;5058842;28;20036;-77
2022/05/02 04:41:01;;;;;;;6.13;1.20;;;;;;;;;;5058037;28;20048;-77
2022/05/02 04:43:28;;;;;;;3.97;0.75;;;;;;;;;;5056329;28;20020;-77
2022/05/02 04:45:55;;;;;;;5.10;0.93;;;;;;;;;;5058321;28;20017;-77
2022/05/02 04:48:23;;;;;;;4.15;0.95;;;;;;;;;;5057640;28;20493;-77
2022/05/02 04:50:51;;;;;;;6.68;0.90;;;;;;;;;;5056163;28;20078;-77
2022/05/02 04:53:18;;;;;;;4.90;1.02;;;;;;;;;;5056212;28;20421;-77
2022/05/02 04:55:45;;;;;;;6.00;1.63;;;;;;;;;;5055484;28;20500;-77
2022/05/02 04:58:12;;;;;;;6.35;1.00;;;;;;;;;;5055170;28;20028;-77
2022/05/02 05:00:40;;;;;;;9.70;1.38;;;;;;;;;;5055229;28;20017;-76
2022/05/02 05:03:07;;;;;;;5.70;1.20;;;;;;;;;;5055111;28;20393;-76
2022/05/02 05:05:34;;;;;;;8.10;1.25;;;;;;;;;;5055717;28;20020;-77
2022/05/02 05:08:01;;;;;;;8.43;1.50;;;;;;;;;;5054743;28;20080;-76
2022/05/02 05:10:28;;;;;;;10.32;1.40;;;;;;;;;;5055228;28;20416;-76
2022/05/02 05:13:04;;;;;;;4.25;1.30;;;;;;;;;;5054747;28;20028;-77
2022/05/02 05:18:35;;;;;;;6.85;1.60;;;;;;;;;;5055757;28;20447;-77
2022/05/02 05:21:26;;;;;;;5.25;1.05;;;;;;;;;;5055328;28;20043;-76
2022/05/02 05:24:00;;;;;;;7.47;1.30;;;;;;;;;;5057877;28;20017;-77
2022/05/02 05:26:31;;;;;;;5.43;1.10;;;;;;;;;;5054953;28;20048;-77
2022/05/02 05:29:07;;;;;;;6.25;1.83;;;;;;;;;;5054708;28;20024;-78
2022/05/02 05:31:46;;;;;;;4.80;0.95;;;;;;;;;;5054075;28;20025;-76
2022/05/02 05:34:31;;;;;;;6.78;1.27;;;;;;;;;;5055003;28;20021;-78
2022/05/02 05:37:04;;;;;;;4.28;1.15;;;;;;;;;;5054828;28;20056;-77
2022/05/02 05:39:31;;;;;;;7.88;1.20;;;;;;;;;;5054695;28;20385;-77
2022/05/02 05:42:13;;;;;;;6.60;1.38;;;;;;;;;;5054756;28;20015;-76
2022/05/02 05:44:55;;;;;;;4.30;0.70;;;;;;;;;;5054928;28;20385;-76
2022/05/02 05:47:25;;;;;;;5.60;0.88;;;;;;;;;;5053315;28;20021;-77
2022/05/02 05:50:18;;;;;;;7.00;1.30;;;;;;;;;;5053444;28;20115;-77
2022/05/02 05:53:03;;;;;;;6.97;1.35;;;;;;;;;;5050353;28;20029;-77
2022/05/02 05:55:49;;;;;;;4.95;1.27;;;;;;;;;;5052795;28;20031;-77
2022/05/02 05:58:21;;;;;;;3.47;0.82;;;;;;;;;;5054101;28;20017;-77
2022/05/02 06:00:52;;;;;;;9.00;1.50;;;;;;;;;;5054118;28;20029;-78
2022/05/02 06:03:26;;;;;;;5.68;1.25;;;;;;;;;;5052857;28;20021;-77
2022/05/02 06:05:54;;;;;;;5.25;1.30;;;;;;;;;;5053787;28;20021;-78
2022/05/02 06:08:22;;;;;;;5.82;0.95;;;;;;;;;;5053374;28;20112;-77
2022/05/02 06:10:53;;;;;;;4.78;1.33;;;;;;;;;;5052820;28;20039;-77
2022/05/02 06:13:19;;;;;;;;;;;;;;;;;;5054012;28;20028;-77
2022/05/02 06:18:40;;;;;;;5.80;1.50;;;;;;;;;;5053355;28;20076;-77
2022/05/02 06:21:08;;;;;;;5.28;1.38;;;;;;;;;;5053443;28;20536;-77
2022/05/02 06:24:01;;;;;;;6.28;1.58;;;;;;;;;;5053726;28;20434;-78
2022/05/02 06:26:28;;;;;;;5.30;1.30;;;;;;;;;;5062869;28;20048;-77
2022/05/02 06:28:56;;;;;;;6.35;1.60;;;;;;;;;;5064426;28;20016;-77
2022/05/02 06:31:25;;;;;;;4.97;1.25;;;;;;;;;;5065476;28;20488;-77
2022/05/02 06:33:53;;;;;;;2.83;1.10;;;;;;;;;;5053368;28;20025;-77
2022/05/02 06:36:38;;;;;;;8.00;1.20;;;;;;;;;;5055506;28;20031;-77
2022/05/02 06:39:18;;;;;;;9.30;1.17;;;;;;;;;;5052479;28;20060;-78
2022/05/02 06:41:48;;;;;;;5.72;1.08;;;;;;;;;;5052397;28;20393;-77
2022/05/02 06:44:27;;;;;;;6.63;0.85;;;;;;;;;;5053635;28;20017;-77
2022/05/02 06:47:11;;;;;;;5.72;1.20;;;;;;;;;;5054262;28;20066;-77
2022/05/02 06:49:42;;;;;;;4.10;1.20;;;;;;;;;;5054214;28;20021;-77
2022/05/02 06:52:11;;;;;;;5.75;1.00;;;;;;;;;;5054251;28;20032;-77
2022/05/02 06:54:56;;;;;;;4.22;1.00;;;;;;;;;;5052747;28;20021;-77
2022/05/02 06:57:42;;;;;;;4.03;1.23;;;;;;;;;;5053635;28;20532;-76
2022/05/02 07:00:15;;;;;;;9.82;1.42;;;;;;;;;;5053402;28;20029;-76
2022/05/02 07:02:42;;;;;;;4.00;1.00;;;;;;;;;;5056635;28;20481;-75
2022/05/02 07:05:17;;;;;;;8.88;1.63;;;;;;;;;;5053761;28;20089;-76
2022/05/02 07:07:48;;;;;;;6.35;1.42;;;;;;;;;;5053056;28;20103;-76
2022/05/02 07:10:22;;;;;;;5.72;1.83;;;;;;;;;;5053213;28;20069;-76
2022/05/02 07:12:49;;;;;;;6.30;1.42;;;;;;;;;;5053995;28;20025;-76
2022/05/02 07:15:24;;;;;;;5.20;1.52;;;;;;;;;;5054178;28;20035;-77
2022/05/02 07:18:01;;;;;;;6.68;1.42;;;;;;;;;;5055412;28;20031;-77
2022/05/02 07:20:50;;;;;;;5.07;1.45;;;;;;;;;;5051428;28;20485;-77
2022/05/02 07:23:23;;;;;;;5.85;1.48;;;;;;;;;;5053482;28;20554;-77
2022/05/02 07:25:53;;;;;;;9.57;2.28;;;;;;;;;;5053056;28;20024;-77
2022/05/02 07:28:31;;;;;;;6.18;1.30;;;;;;;;;;5054223;28;20029;-76
2022/05/02 07:30:58;;;;;;;5.30;1.48;;;;;;;;;;5054022;28;20374;-77
2022/05/02 07:33:37;;;;;;;4.47;1.02;;;;;;;;;;5053768;28;20032;-77
2022/05/02 07:36:04;;;;;;;8.02;1.38;;;;;;;;;;5053944;28;20032;-77
2022/05/02 07:38:35;;;;;;;5.47;1.10;;;;;;;;;;5054362;28;20025;-76
2022/05/02 07:41:22;;;;;;;8.55;2.80;;;;;;;;;;5054107;28;20420;-77
2022/05/02 07:43:51;;;;;;;12.02;4.45;;;;;;;;;;5055754;28;20017;-77
2022/05/02 07:46:24;;;;;;;11.10;5.00;;;;;;;;;;5052740;28;20119;-77
2022/05/02 07:48:52;;;;;;;14.15;5.75;;;;;;;;;;5054978;28;20028;-77
2022/05/02 07:51:20;;;;;;;9.10;3.75;;;;;;;;;;5052732;28;20068;-77
2022/05/02 07:53:47;;;;;;;11.27;3.90;;;;;;;;;;5056049;28;20029;-77
2022/05/02 07:56:16;;;;;;;7.00;2.88;;;;;;;;;;5064610;28;20112;-77
2022/05/02 07:58:44;;;;;;;11.48;3.83;;;;;;;;;;5061388;28;20033;-77
2022/05/02 08:01:13;;;;;;;10.05;4.18;;;;;;;;;;5076355;28;20096;-76
2022/05/02 08:03:40;;;;;;;6.53;2.35;;;;;;;;;;5077453;28;20093;-77
2022/05/02 08:06:21;;;;;;;8.18;3.05;;;;;;;;;;5075094;28;20059;-77
2022/05/02 08:08:58;;;;;;;8.43;3.17;;;;;;;;;;5056215;28;20044;-76
2022/05/02 08:11:28;;;;;;;6.47;1.90;;;;;;;;;;5055526;28;20025;-77
2022/05/02 08:14:13;;;;;;;7.53;2.20;;;;;;;;;;5057133;28;20025;-77
2022/05/02 08:16:47;;;;;;;6.20;2.35;;;;;;;;;;5055167;28;20097;-76
2022/05/02 08:19:27;;;;;;;6.75;2.10;;;;;;;;;;5054949;28;20029;-76
2022/05/02 08:27:52;;;;;;;6.15;2.53;;;;;;;;;;5057257;28;20032;-79
2022/05/02 08:30:24;;;;;;;8.00;2.85;;;;;;;;;;5058220;28;20113;-80
2022/05/02 08:32:56;;;;;;;8.43;3.28;;;;;;;;;;5061528;28;20025;-80
2022/05/02 08:35:26;;;;;;;10.00;2.33;;;;;;;;;;5061765;28;20035;-80
2022/05/02 08:37:58;;;;;;;7.53;2.20;;;;;;;;;;5060424;28;20025;-80
2022/05/02 08:40:25;;;;;;;6.47;2.38;;;;;;;;;;5061252;28;20024;-80
2022/05/02 08:43:01;;;;;;;7.45;2.63;;;;;;;;;;5057320;28;20014;-79
2022/05/02 08:45:44;;;;;;;6.63;2.40;;;;;;;;;;5057613;28;20045;-81
2022/05/02 08:48:23;;;;;;;11.68;2.72;;;;;;;;;;5055522;28;20454;-81
2022/05/02 08:51:09;;;;;;;6.57;2.70;;;;;;;;;;5056889;28;20033;-81
2022/05/02 08:53:39;;;;;;;8.35;2.50;;;;;;;;;;5058093;28;20103;-81
2022/05/02 08:56:06;;;;;;;7.22;2.88;;;;;;;;;;5058112;28;20025;-81
2022/05/02 08:58:51;;;;;;;6.50;2.40;;;;;;;;;;5058495;28;20397;-77
2022/05/02 09:01:21;;;;;;;9.35;2.70;;;;;;;;;;5056634;28;20024;-78
2022/05/02 09:04:11;;;;;;;8.93;3.63;;;;;;;;;;5055748;28;20412;-78
2022/05/02 09:06:48;;;;;;;7.90;3.20;;;;;;;;;;5026185;28;20258;-78
2022/05/02 09:09:33;;;;;;;8.35;2.63;;;;;;;;;;5055174;28;20049;-78
2022/05/02 09:12:09;;;;;;;7.47;2.97;;;;;;;;;;5055139;28;20024;-78
2022/05/02 09:14:39;;;;;;;9.80;2.70;;;;;;;;;;5054032;28;20025;-79
2022/05/02 09:17:26;;;;;;;11.15;3.20;;;;;;;;;;5058371;28;20036;-79
2022/05/02 09:19:59;;;;;;;7.05;2.20;;;;;;;;;;5056408;28;20123;-77
2022/05/02 09:22:44;;;;;;;4.63;1.77;;;;;;;;;;5058336;28;20017;-78
2022/05/02 09:25:12;;;;;;;4.72;2.17;;;;;;;;;;5054860;28;20021;-78
2022/05/02 09:27:39;;;;;;;4.18;1.83;;;;;;;;;;5054685;28;20024;-78
2022/05/02 09:30:12;;;;;;;6.63;2.13;;;;;;;;;;5053519;28;20160;-78
2022/05/02 09:32:46;;;;;;;6.82;2.00;;;;;;;;;;5055046;28;20097;-78
2022/05/02 09:35:18;;;;;;;8.63;2.05;;;;;;;;;;5055060;28;20107;-78
2022/05/02 09:38:08;;;;;;;7.30;1.88;;;;;;;;;;5055142;28;20444;-78
2022/05/02 09:40:36;;;;;;;6.80;2.75;;;;;;;;;;5049353;28;20040;-78
2022/05/02 09:43:22;;;;;;;6.72;1.90;;;;;;;;;;5054933;28;20021;-77
2022/05/02 09:51:50;;;;;;;6.55;2.22;;;;;;;;;;5054482;28;20028;-78
2022/05/02 09:56:37;;;;;;;5.72;1.92;;;;;;;;;;5053441;28;20025;-78
2022/05/02 09:57:10;;;;;;;5.20;1.80;;;;;;;;;;5054390;28;20094;-78
2022/05/02 09:59:44;;;;;;;3.80;1.50;;;;;;;;;;5054445;28;20075;-77
2022/05/02 10:02:20;;;;;;;5.78;1.75;;;;;;;;;;5054143;28;20025;-77
2022/05/02 10:05:06;;;;;;;6.10;2.03;;;;;;;;;;5052950;28;20021;-77
2022/05/02 10:07:38;;;;;;;4.53;1.88;;;;;;;;;;5052557;28;20393;-77
2022/05/02 10:10:24;;;;;;;6.32;1.77;;;;;;;;;;5054217;28;20074;-77
2022/05/02 10:12:58;;;;;;;8.02;3.28;;;;;;;;;;5052595;28;20025;-77
2022/05/02 10:15:43;;;;;;;9.63;3.25;;;;;;;;;;5052976;28;20047;-82
2022/05/02 10:18:16;;;;;;;6.00;1.80;;;;;;;;;;5054574;28;20104;-81
2022/05/02 10:20:47;;;;;;;6.28;1.85;;;;;;;;;;5053524;28;20057;-79
2022/05/02 10:23:16;;;;;;;5.80;1.65;;;;;;;;;;5053033;28;20112;-79
2022/05/02 10:26:06;;;;;;;5.87;1.70;;;;;;;;;;5053023;28;20032;-79
2022/05/02 10:28:52;;;;;;;5.65;1.75;;;;;;;;;;5052351;28;20048;-80
2022/05/02 10:31:25;;;;;;;7.07;2.42;;;;;;;;;;5053311;28;20432;-78
2022/05/02 10:33:53;;;;;;;4.13;1.60;;;;;;;;;;5053428;28;20021;-76
2022/05/02 10:36:23;;;;;;;6.80;1.83;;;;;;;;;;5054324;28;20392;-77
2022/05/02 10:39:04;;;;;;;6.50;1.77;;;;;;;;;;5054283;28;20027;-80
2022/05/02 10:41:46;;;;;;;6.28;2.15;;;;;;;;;;5054821;28;20066;-78
2022/05/02 10:44:15;;;;;;;4.25;1.70;;;;;;;;;;5054468;28;20070;-78
2022/05/02 10:46:44;;;;;;;6.13;1.90;;;;;;;;;;5058243;28;20021;-78
2022/05/02 10:49:17;;;;;;;4.45;1.85;;;;;;;;;;5053509;28;20041;-77
2022/05/02 10:51:55;;;;;;;5.07;1.88;;;;;;;;;;5054671;28;20079;-80
2022/05/02 10:54:41;;;;;;;6.20;1.90;;;;;;;;;;5064500;28;20032;-80
2022/05/02 10:57:17;;;;;;;3.25;1.52;;;;;;;;;;5053389;28;20037;-77
2022/05/02 10:59:45;;;;;;;4.35;1.40;;;;;;;;;;5064172;28;20112;-78
2022/05/02 11:02:37;;;;;;;5.30;1.58;;;;;;;;;;5059161;28;20070;-79
2022/05/02 11:05:05;;;;;;;3.85;1.50;;;;;;;;;;5052402;28;20167;-79
2022/05/02 11:07:50;;;;;;;5.47;1.73;;;;;;;;;;5055452;28;20046;-79
2022/05/02 11:10:21;;;;;;;5.80;1.75;;;;;;;;;;5057063;28;20040;-76
2022/05/02 11:13:20;;;;;;;4.93;1.42;;;;;;;;;;5062511;28;20029;-78
2022/05/02 11:15:48;;;;;;;2.95;1.48;;;;;;;;;;5052726;28;20096;-79
2022/05/02 11:21:42;;;;;;;8.98;2.17;;;;;;;;;;5057186;28;20044;-79
2022/05/02 11:24:23;;;;;;;4.10;1.50;;;;;;;;;;5055559;28;20017;-78
2022/05/02 11:27:14;;;;;;;4.50;1.45;;;;;;;;;;5056465;28;20029;-79
2022/05/02 11:30:00;;;;;;;4.95;1.70;;;;;;;;;;5057647;28;20088;-81
2022/05/02 11:32:27;;;;;;;3.72;1.63;;;;;;;;;;5058691;28;20033;-79
2022/05/02 11:35:05;;;;;;;5.22;1.30;;;;;;;;;;5057926;28;20163;-77
2022/05/02 11:37:51;;;;;;;6.85;1.80;;;;;;;;;;5060264;28;20032;-80
2022/05/02 11:40:19;;;;;;;4.45;1.60;;;;;;;;;;5060756;28;20052;-80
2022/05/02 11:42:49;;;;;;;3.47;1.50;;;;;;;;;;5061026;28;20047;-80
2022/05/02 11:45:18;;;;;;;6.15;1.90;;;;;;;;;;5065105;28;20064;-78
2022/05/02 11:48:01;;;;;;;6.72;2.10;;;;;;;;;;5063116;28;20135;-79
2022/05/02 11:50:29;;;;;;;5.78;1.55;;;;;;;;;;5066693;28;20485;-80
2022/05/02 11:53:01;;;;;;;6.13;1.92;;;;;;;;;;5061369;28;20517;-79
2022/05/02 11:55:33;;;;;;;4.28;1.50;;;;;;;;;;5058769;28;20106;-79
2022/05/02 11:58:08;;;;;;;6.40;1.70;;;;;;;;;;5061451;28;20099;-79
2022/05/02 12:00:37;;;;;;;5.18;1.40;;;;;;;;;;5062694;28;20025;-79
2022/05/02 12:03:18;;;;;;;5.13;1.50;;;;;;;;;;5062117;28;20021;-81
2022/05/02 12:05:56;;;;;;;4.47;1.65;;;;;;;;;;5059362;28;20107;-73
2022/05/02 12:08:26;;;;;;;7.72;2.03;;;;;;;;;;5055577;28;20405;-73
2022/05/02 12:11:05;;;;;;;4.73;1.60;;;;;;;;;;5056442;28;20451;-71
2022/05/02 12:13:36;;;;;;;3.35;1.42;;;;;;;;;;5055671;28;20021;-72
2022/05/02 12:16:04;;;;;;;3.65;1.30;;;;;;;;;;5056072;28;20055;-73
2022/05/02 12:18:51;;;;;;;5.70;1.83;;;;;;;;;;5059648;28;20028;-73
2022/05/02 12:21:29;;;;;;;6.47;1.77;;;;;;;;;;5055450;28;20353;-73
2022/05/02 12:23:58;;;;;;;7.05;1.70;;;;;;;;;;5056911;28;20074;-73
2022/05/02 12:26:25;;;;;;;4.93;1.85;;;;;;;;;;5055941;28;20334;-73
2022/05/02 12:29:03;;;;;;;4.85;1.75;;;;;;;;;;5056386;28;20473;-73
2022/05/02 12:31:37;;;;;;;6.25;1.67;;;;;;;;;;5056582;28;20100;-73
2022/05/02 12:34:07;;;;;;;5.15;1.45;;;;;;;;;;5056046;28;20151;-73
2022/05/02 12:36:49;;;;;;;7.27;1.70;;;;;;;;;;5055799;28;20033;-73
2022/05/02 12:39:16;;;;;;;5.47;1.88;;;;;;;;;;5055792;28;20465;-73
2022/05/02 12:41:47;;;;;;;4.55;1.48;;;;;;;;;;5053874;28;20082;-73
2022/05/02 12:44:15;;;;;;;5.53;1.58;;;;;;;;;;5055851;28;20025;-73
2022/05/02 12:46:53;;;;;;;4.38;1.30;;;;;;;;;;5056498;28;20059;-73
2022/05/02 12:49:24;;;;;;;5.80;1.45;;;;;;;;;;5056696;28;20461;-74
2022/05/02 12:51:53;;;;;;;7.47;1.92;;;;;;;;;;5056088;28;20027;-73
2022/05/02 12:54:21;;;;;;;4.72;1.85;;;;;;;;;;5054412;28;20485;-74
2022/05/02 13:02:35;;;;;;;8.55;2.13;;;;;;;;;;5055328;28;20059;-73
2022/05/02 13:05:13;;;;;;;5.00;1.77;;;;;;;;;;5055102;28;20021;-72
2022/05/02 13:07:47;;;;;;;5.88;1.77;;;;;;;;;;5054867;28;20041;-73
2022/05/02 13:10:17;;;;;;;6.28;1.80;;;;;;;;;;5053678;28;20028;-73
2022/05/02 13:12:57;;;;;;;5.05;1.70;;;;;;;;;;5055155;28;20068;-72
2022/05/02 13:15:26;;;;;;;6.13;1.90;;;;;;;;;;5061812;28;20025;-75
2022/05/02 13:17:57;;;;;;;4.65;1.88;;;;;;;;;;5059323;28;20122;-72
2022/05/02 13:20:26;;;;;;;6.38;1.95;;;;;;;;;;5056627;28;20029;-73
2022/05/02 13:23:25;;;;;;;4.55;1.63;;;;;;;;;;5053654;28;20021;-73
2022/05/02 13:26:11;;;;;;;4.95;1.70;;;;;;;;;;5053285;28;20481;-74
2022/05/02 13:28:39;;;;;;;5.18;1.65;;;;;;;;;;5054622;28;20018;-73
2022/05/02 13:31:13;;;;;;;5.25;1.65;;;;;;;;;;5057047;28;20085;-73
2022/05/02 13:33:44;;;;;;;4.30;1.80;;;;;;;;;;5055497;28;20497;-73
2022/05/02 13:36:12;;;;;;;7.18;1.88;;;;;;;;;;5055471;28;20021;-73
2022/05/02 13:38:51;;;;;;;4.63;1.60;;;;;;;;;;5056038;28;20033;-74
2022/05/02 13:41:24;;;;;;;4.93;1.38;;;;;;;;;;5053658;28;20045;-74
2022/05/02 13:43:54;;;;;;;6.60;1.70;;;;;;;;;;5055081;28;20088;-74
2022/05/02 13:46:22;;;;;;;7.95;2.00;;;;;;;;;;5055622;28;20021;-72
2022/05/02 13:49:25;;;;;;;3.22;1.40;;;;;;;;;;5060592;28;20043;-74
2022/05/02 13:51:57;;;;;;;4.88;1.52;;;;;;;;;;5013223;28;20526;-73
2022/05/02 13:54:27;;;;;;;6.25;1.67;;;;;;;;;;5054694;28;20055;-73
2022/05/02 13:57:12;;;;;;;5.57;1.70;;;;;;;;;;5061856;28;20115;-74
2022/05/02 14:03:00;;;;;;;3.63;1.50;;;;;;;;;;5054843;28;20485;-74
2022/05/02 14:05:43;;;;;;;4.47;1.60;;;;;;;;;;5054167;28;20021;-74
2022/05/02 14:08:12;;;;;;;4.72;1.50;;;;;;;;;;5054741;28;20033;-74
2022/05/02 14:10:52;;;;;;;3.47;1.48;;;;;;;;;;5054400;28;20025;-73
2022/05/02 14:13:21;;;;;;;4.45;1.63;;;;;;;;;;5053964;28;20036;-72
2022/05/02 14:15:48;;;;;;;4.45;1.77;;;;;;;;;;5054347;28;20028;-72
2022/05/02 14:18:19;;;;;;;7.50;2.00;;;;;;;;;;5056380;28;20049;-72
2022/05/02 14:20:46;;;;;;;10.13;2.10;;;;;;;;;;5053998;28;20393;-71
2022/05/02 14:23:14;;;;;;;4.75;1.67;;;;;;;;;;5052344;28;20021;-73
2022/05/02 14:25:43;;;;;;;5.53;1.60;;;;;;;;;;5052465;28;20546;-72
2022/05/02 14:28:13;;;;;;;5.55;1.67;;;;;;;;;;5054533;28;20430;-72
2022/05/02 14:30:44;;;;;;;5.38;1.80;;;;;;;;;;5054388;28;20021;-74
2022/05/02 14:33:15;;;;;;;6.85;1.60;;;;;;;;;;5055072;28;20025;-74
2022/05/02 14:35:44;;;;;;;5.00;1.55;;;;;;;;;;5054448;28;20032;-74
2022/05/02 14:38:14;;;;;;;5.93;2.15;;;;;;;;;;5057369;28;20123;-74
2022/05/02 14:40:42;;;;;;;7.22;2.33;;;;;;;;;;5054175;28;20100;-74
2022/05/02 14:43:10;;;;;;;5.05;1.88;;;;;;;;;;5054375;28;20032;-73
2022/05/02 14:45:38;;;;;;;4.53;1.70;;;;;;;;;;5055661;28;20081;-74
2022/05/02 14:48:06;;;;;;;5.30;1.70;;;;;;;;;;5053485;28;20025;-74
2022/05/02 14:50:34;;;;;;;5.43;2.05;;;;;;;;;;5053261;28;20025;-73
2022/05/02 14:53:09;;;;;;;6.25;1.90;;;;;;;;;;5052126;28;20028;-73
2022/05/02 14:55:46;;;;;;;5.82;2.00;;;;;;;;;;5051946;28;20056;-74
2022/05/02 14:58:19;;;;;;;6.82;2.10;;;;;;;;;;5052039;28;20029;-74
2022/05/02 15:00:49;;;;;;;5.18;2.20;;;;;;;;;;5053377;28;20043;-73
2022/05/02 15:03:17;;;;;;;5.97;2.75;;;;;;;;;;5053396;28;20044;-74
2022/05/02 15:05:45;;;;;;;6.13;2.67;;;;;;;;;;5059762;28;20017;-74
2022/05/02 15:08:21;;;;;;;5.43;3.03;;;;;;;;;;5070139;28;20033;-74
2022/05/02 15:10:54;;;;;;;5.80;2.70;;;;;;;;;;5067354;28;20021;-74
2022/05/02 15:13:40;;;;;;;7.10;2.90;;;;;;;;;;5063378;28;20524;-73
2022/05/02 15:16:27;;;;;;;5.10;3.08;;;;;;;;;;5058154;28;20029;-74
2022/05/02 15:22:16;;;;;;;5.93;2.80;;;;;;;;;;5059769;28;20028;-74
2022/05/02 15:25:07;;;;;;;8.93;3.17;;;;;;;;;;5062280;28;20021;-73
2022/05/02 15:36:40;;;;;;;5.55;2.95;;;;;;;;;;5059463;28;20552;-73
2022/05/02 15:39:08;;;;;;;6.13;2.72;;;;;;;;;;5057961;28;20047;-73
2022/05/02 15:41:42;;;;;;;7.32;3.00;;;;;;;;;;5058128;28;20477;-72
2022/05/02 15:44:20;;;;;;;9.55;2.70;;;;;;;;;;5059428;28;20111;-73
2022/05/02 15:46:51;;;;;;;6.25;2.90;;;;;;;;;;5059457;28;20143;-73
2022/05/02 15:49:18;;;;;;;6.93;2.95;;;;;;;;;;5058096;28;20052;-73
2022/05/02 15:51:46;;;;;;;7.43;2.97;;;;;;;;;;5059428;28;20025;-73
2022/05/02 15:54:22;;;;;;;4.30;2.60;;;;;;;;;;5059243;28;20151;-73
2022/05/02 15:57:01;;;;;;;5.95;2.65;;;;;;;;;;5059258;28;20033;-73
2022/05/02 15:59:35;;;;;;;4.75;2.72;;;;;;;;;;5059203;28;20027;-73
2022/05/02 16:02:04;;;;;;;5.53;2.30;;;;;;;;;;5057972;28;20044;-74